メインページ
METAR-TAF:

METAR-TAF

空港 :

ルクセンブルク, ルクセンブルク

ルクセンブルク-フィンデル空港

緯度: 49-37N, 経度: 006-13E, 海抜: 376m

現時点の気象観測

当レポートは35分前の05:20(UTC)に作成
西の風 4kt、南西から西/北西の間で変化する
気温 10°C
湿度 100%
気圧 1024 hPa
視程10km以上
高度800ftの千切れ雲あり

METAR: ELLX 200520Z 27004KT 230V290 9999 BKN008 10/10 Q1024 NOSIG

時間: 07:55 (05:55 UTC)

予報

当レポートは55分前の05:00(UTC)に作成
予報は20日の 06時(UTC)から 21日の 12時(UTC)まで有効
西の風 5kt
視程10km以上
高度900ftの千切れ雲あり
20日の 06時(UTC)から 20日の 08時(UTC)まで徐々に
高度3000ftの千切れ雲あり
20日の 23時(UTC)から 21日の 01時(UTC)まで徐々に
変向風 2kt
視程: 3000m
確率 40% :
21日の 02時(UTC)から 21日の 06時(UTC)まで一時的に
視程: 1500m
高度700ftの千切れ雲あり

TAF: ELLX 200500Z 2006/2112 26005KT 9999 BKN009 BECMG 2006/2008 BKN030 BECMG 2023/2101 VRB02KT 3000 BR PROB40 TEMPO 2102/2106 1500 BR BKN007

4,000以上の空港の気象観測と天気予報(METAR報とTAF報)

利用可能な観測所は地図上に黄色い丸と赤い丸で示す。

丸の上にカーソルを重ねると観測所名を参照できる。

次にクリックすると気象観測と天気予報を参照できる。

マップの切り替え:黒色「×」印の緑ボタンをクリックして拡大、「-」印の緑ボタンをクリックして縮小、緑色の三角印をクリックして隣りの地図に切り替え


METAR-TAF: